Time;durP1;ratioP1;P1;durP2;ratioP2;P2;SDS_P1;SDS_P2;PMS_P1;PMS_P2;Temp;Humidity;BMP_temperature;BMP_pressure;BME280_temperature;BME280_humidity;BME280_pressure;Samples;Min_cycle;Max_cycle;Signal;HPM_P1;HPM_P2
2022/10/10 00:00:08;;;;;;;;;;;9.70;99.90;;;;;;5105626;28;19987;-74
2022/10/10 00:02:35;;;;;;;;;;;9.70;99.90;;;;;;5106038;28;19959;-74
2022/10/10 00:05:03;;;;;;;;;;;9.70;99.90;;;;;;5105172;28;19970;-73
2022/10/10 00:07:30;;;;;;;;;;;9.70;99.90;;;;;;5105504;28;19987;-73
2022/10/10 00:09:56;;;;;;;;;;;9.70;99.90;;;;;;5105678;28;19983;-75
2022/10/10 00:12:23;;;;;;;;;;;9.70;99.90;;;;;;5105589;28;19924;-75
2022/10/10 00:14:50;;;;;;;;;;;9.60;99.90;;;;;;5104804;28;19970;-74
2022/10/10 00:17:17;;;;;;;;;;;9.50;99.90;;;;;;5105571;28;20283;-75
2022/10/10 00:19:43;;;;;;;;;;;9.40;99.90;;;;;;5105646;28;19920;-75
2022/10/10 00:22:11;;;;;;;;;;;9.40;99.90;;;;;;5105545;28;19926;-75
2022/10/10 00:24:38;;;;;;;;;;;9.30;99.90;;;;;;5104169;28;19946;-75
2022/10/10 00:27:04;;;;;;;;;;;9.30;99.90;;;;;;5105300;28;19991;-74
2022/10/10 00:29:31;;;;;;;;;;;9.30;99.90;;;;;;5105557;28;20119;-75
2022/10/10 00:31:58;;;;;;;;;;;9.30;99.90;;;;;;5105319;28;19926;-75
2022/10/10 00:34:24;;;;;;;;;;;9.20;99.90;;;;;;5105282;28;19919;-72
2022/10/10 00:36:51;;;;;;;;;;;9.30;99.90;;;;;;5104394;28;19986;-74
2022/10/10 00:39:19;;;;;;;;;;;9.20;99.90;;;;;;5105147;28;19920;-75
2022/10/10 00:41:45;;;;;;;;;;;9.20;99.90;;;;;;5105344;28;19920;-75
2022/10/10 00:44:13;;;;;;;;;;;9.20;99.90;;;;;;5105307;28;19920;-75
2022/10/10 00:46:39;;;;;;;;;;;9.20;99.90;;;;;;5104429;28;19920;-76
2022/10/10 00:49:09;;;;;;;;;;;9.20;99.90;;;;;;5105193;28;19926;-75
2022/10/10 00:51:36;;;;;;;;;;;9.10;99.90;;;;;;5105018;28;19941;-75
2022/10/10 00:54:05;;;;;;;;;;;9.00;99.90;;;;;;5104554;28;20298;-72
2022/10/10 00:56:36;;;;;;;;;;;9.00;99.90;;;;;;5104118;28;19983;-74
2022/10/10 00:59:04;;;;;;;;;;;9.00;99.90;;;;;;5104982;28;19927;-74
2022/10/10 01:01:30;;;;;;;;;;;8.90;99.90;;;;;;5104428;28;20203;-74
2022/10/10 01:03:58;;;;;;;;;;;8.90;99.90;;;;;;5104868;28;19927;-74
2022/10/10 01:06:24;;;;;;;;;;;8.90;99.90;;;;;;5103784;28;19928;-74
2022/10/10 01:08:51;;;;;;;;;;;8.90;99.90;;;;;;5104590;28;19987;-74
2022/10/10 01:11:27;;;;;;;;;;;8.80;99.90;;;;;;5104388;28;19927;-74
2022/10/10 01:13:59;;;;;;;;;;;8.80;99.90;;;;;;5104686;28;19920;-74
2022/10/10 01:16:27;;;;;;;;;;;8.80;99.90;;;;;;5103512;28;20224;-73
2022/10/10 01:19:00;;;;;;;;;;;8.70;99.90;;;;;;5103105;28;19995;-74
2022/10/10 01:21:29;;;;;;;;;;;8.70;99.90;;;;;;5104593;28;19926;-75
2022/10/10 01:24:01;;;;;;;;;;;8.70;99.90;;;;;;5104028;28;19920;-74
2022/10/10 01:26:45;;;;;;;;;;;8.70;99.90;;;;;;5103650;28;19920;-74
2022/10/10 01:29:17;;;;;;;;;;;8.60;99.90;;;;;;5104332;28;19920;-75
2022/10/10 01:31:45;;;;;;;;;;;8.50;99.90;;;;;;5104315;28;19920;-75
2022/10/10 01:34:16;;;;;;;;;;;8.50;99.90;;;;;;5104228;28;20164;-75
2022/10/10 01:36:45;;;;;;;;;;;8.50;99.90;;;;;;5102925;28;20229;-72
2022/10/10 01:39:14;;;;;;;;;;;8.50;99.90;;;;;;5104101;28;19920;-75
2022/10/10 01:41:43;;;;;;;;;;;8.40;99.90;;;;;;5104207;28;19920;-73
2022/10/10 01:44:09;;;;;;;;;;;8.40;99.90;;;;;;5104185;28;19920;-75
2022/10/10 01:46:37;;;;;;;;;;;8.40;99.90;;;;;;5102936;28;20207;-74
2022/10/10 01:49:04;;;;;;;;;;;8.30;99.90;;;;;;5104212;28;19927;-75
2022/10/10 01:51:36;;;;;;;;;;;8.30;99.90;;;;;;5103974;28;19983;-75
2022/10/10 01:54:07;;;;;;;;;;;8.30;99.90;;;;;;5103964;28;19926;-75
2022/10/10 01:56:36;;;;;;;;;;;8.20;99.90;;;;;;5103093;28;19958;-74
2022/10/10 01:59:08;;;;;;;;;;;8.20;99.90;;;;;;5103851;28;19927;-75
2022/10/10 02:01:39;;;;;;;;;;;8.20;99.90;;;;;;5103617;28;19978;-73
2022/10/10 02:04:17;;;;;;;;;;;8.20;99.90;;;;;;5103770;28;19993;-74
2022/10/10 02:06:46;;;;;;;;;;;8.20;99.90;;;;;;5102647;28;19986;-74
2022/10/10 02:09:15;;;;;;;;;;;8.10;99.90;;;;;;5103804;28;19924;-74
2022/10/10 02:11:42;;;;;;;;;;;8.10;99.90;;;;;;5103825;28;19926;-74
2022/10/10 02:14:11;;;;;;;;;;;8.10;99.90;;;;;;5103477;28;19920;-75
2022/10/10 02:16:42;;;;;;;;;;;8.10;99.90;;;;;;5102953;28;19983;-75
2022/10/10 02:19:16;;;;;;;;;;;8.10;99.90;;;;;;5102054;28;19920;-74
2022/10/10 02:21:44;;;;;;;;;;;8.10;99.90;;;;;;5103700;28;19979;-75
2022/10/10 02:24:12;;;;;;;;;;;8.10;99.90;;;;;;5103490;28;19983;-75
2022/10/10 02:26:40;;;;;;;;;;;8.10;99.90;;;;;;5102630;28;19920;-75
2022/10/10 02:29:09;;;;;;;;;;;8.00;99.90;;;;;;5103387;28;19920;-75
2022/10/10 02:31:38;;;;;;;;;;;8.00;99.90;;;;;;5103688;28;19926;-73
2022/10/10 02:34:09;;;;;;;;;;;7.90;99.90;;;;;;5103286;28;19928;-74
2022/10/10 02:36:36;;;;;;;;;;;7.90;99.90;;;;;;5082635;28;19987;-74
2022/10/10 02:39:03;;;;;;;;;;;7.90;99.90;;;;;;5083506;28;19926;-73
2022/10/10 02:41:30;;;;;;;;;;;7.80;99.90;;;;;;5083147;28;19920;-74
2022/10/10 02:43:57;;;;;;;;;;;7.80;99.90;;;;;;5083416;28;19920;-74
2022/10/10 02:46:24;;;;;;;;;;;7.80;99.90;;;;;;5082440;28;20014;-72
2022/10/10 02:48:51;;;;;;;;;;;7.80;99.90;;;;;;5084908;28;20263;-74
2022/10/10 02:51:19;;;;;;;;;;;7.80;99.90;;;;;;5087069;28;19983;-74
2022/10/10 02:53:46;;;;;;;;;;;7.80;99.90;;;;;;5096564;28;19983;-74
2022/10/10 02:56:12;;;;;;;;;;;7.80;99.90;;;;;;5106487;28;19926;-73
2022/10/10 02:58:39;;;;;;;;;;;7.80;99.90;;;;;;5107185;28;19927;-73
2022/10/10 03:01:06;;;;;;;;;;;7.80;99.90;;;;;;5106831;28;20152;-74
2022/10/10 03:03:32;;;;;;;;;;;7.80;99.90;;;;;;5106796;28;19979;-74
2022/10/10 03:05:59;;;;;;;;;;;7.80;99.90;;;;;;5106251;28;19987;-74
2022/10/10 03:08:27;;;;;;;;;;;7.80;99.90;;;;;;5107080;28;19920;-74
2022/10/10 03:10:54;;;;;;;;;;;7.70;99.90;;;;;;5106977;28;19928;-74
2022/10/10 03:13:21;;;;;;;;;;;7.80;99.90;;;;;;5106953;28;19955;-75
2022/10/10 03:15:47;;;;;;;;;;;7.80;99.90;;;;;;5105977;28;19991;-74
2022/10/10 03:18:14;;;;;;;;;;;7.80;99.90;;;;;;5106819;28;19920;-74
2022/10/10 03:20:40;;;;;;;;;;;7.80;99.90;;;;;;5106869;28;19983;-75
2022/10/10 03:23:07;;;;;;;;;;;7.80;99.90;;;;;;5106916;28;20270;-73
2022/10/10 03:25:39;;;;;;;;;;;7.80;99.90;;;;;;5106007;28;19920;-75
2022/10/10 03:28:06;;;;;;;;;;;7.80;99.90;;;;;;5107004;28;19942;-75
2022/10/10 03:30:32;;;;;;;;;;;7.80;99.90;;;;;;5106811;28;19983;-75
2022/10/10 03:32:59;;;;;;;;;;;7.80;99.90;;;;;;5106623;28;20098;-74
2022/10/10 03:35:26;;;;;;;;;;;7.80;99.90;;;;;;5105590;28;19920;-72
2022/10/10 03:37:52;;;;;;;;;;;7.80;99.90;;;;;;5106417;28;19920;-74
2022/10/10 03:40:19;;;;;;;;;;;7.70;99.90;;;;;;5106408;28;19927;-75
2022/10/10 03:42:47;;;;;;;;;;;7.70;99.90;;;;;;5106404;28;19926;-74
2022/10/10 03:45:13;;;;;;;;;;;7.70;99.90;;;;;;5105513;28;19920;-74
2022/10/10 03:47:40;;;;;;;;;;;7.70;99.90;;;;;;5085679;28;20295;-74
2022/10/10 03:50:07;;;;;;;;;;;7.70;99.90;;;;;;5099891;28;19983;-74
2022/10/10 03:52:33;;;;;;;;;;;7.70;99.90;;;;;;5105156;28;19920;-74
2022/10/10 03:55:00;;;;;;;;;;;7.70;99.90;;;;;;5104284;28;19998;-72
2022/10/10 03:57:27;;;;;;;;;;;7.70;99.90;;;;;;5105567;28;19920;-74
2022/10/10 03:59:55;;;;;;;;;;;7.60;99.90;;;;;;5104813;28;19920;-75
2022/10/10 04:02:21;;;;;;;;;;;7.60;99.90;;;;;;5106043;28;19927;-74
2022/10/10 04:04:48;;;;;;;;;;;7.60;99.90;;;;;;5102360;28;19983;-74
2022/10/10 04:07:15;;;;;;;;;;;7.50;99.90;;;;;;5103479;28;20289;-73
2022/10/10 04:09:42;;;;;;;;;;;7.50;99.90;;;;;;5093418;28;19926;-75
2022/10/10 04:12:08;;;;;;;;;;;7.50;99.90;;;;;;5105348;28;20115;-75
2022/10/10 04:14:35;;;;;;;;;;;7.50;99.90;;;;;;5105138;28;19920;-71
2022/10/10 04:17:03;;;;;;;;;;;7.50;99.90;;;;;;5104942;28;19976;-75
2022/10/10 04:19:29;;;;;;;;;;;7.50;99.90;;;;;;5104761;28;19927;-74
2022/10/10 04:21:56;;;;;;;;;;;7.40;99.90;;;;;;5105638;28;19927;-74
2022/10/10 04:24:22;;;;;;;;;;;7.40;99.90;;;;;;5105619;28;19926;-75
2022/10/10 04:26:49;;;;;;;;;;;7.50;99.90;;;;;;5104842;28;20082;-72
2022/10/10 04:29:16;;;;;;;;;;;7.50;99.90;;;;;;5105476;28;19926;-75
2022/10/10 04:31:42;;;;;;;;;;;7.50;99.90;;;;;;5105491;28;20118;-74
2022/10/10 04:34:10;;;;;;;;;;;7.40;99.90;;;;;;5105418;28;19982;-74
2022/10/10 04:36:37;;;;;;;;;;;7.50;99.90;;;;;;5101559;28;19920;-75
2022/10/10 04:39:03;;;;;;;;;;;7.50;99.90;;;;;;5105203;28;19926;-72
2022/10/10 04:41:30;;;;;;;;;;;7.50;99.90;;;;;;5105004;28;19982;-74
2022/10/10 04:43:57;;;;;;;;;;;7.50;99.90;;;;;;5105302;28;19927;-75
2022/10/10 04:46:23;;;;;;;;;;;7.50;99.90;;;;;;5096444;22;20007;-70
2022/10/10 04:48:50;;;;;;;;;;;7.50;99.90;;;;;;5075383;28;20200;-70
2022/10/10 04:51:18;;;;;;;;;;;7.40;99.90;;;;;;5066662;28;19927;-70
2022/10/10 04:53:44;;;;;;;;;;;7.40;99.90;;;;;;5064682;28;19983;-70
2022/10/10 04:56:11;;;;;;;;;;;7.40;99.90;;;;;;5063713;28;19952;-69
2022/10/10 04:58:38;;;;;;;;;;;7.40;99.90;;;;;;5064323;28;20145;-69
2022/10/10 05:01:04;;;;;;;;;;;7.40;99.90;;;;;;5064042;28;20266;-70
2022/10/10 05:03:31;;;;;;;;;;;7.40;99.90;;;;;;5063867;28;19921;-69
2022/10/10 05:05:57;;;;;;;;;;;7.40;99.90;;;;;;5063326;28;19987;-69
2022/10/10 05:08:25;;;;;;;;;;;7.40;99.90;;;;;;5064309;28;19983;-68
2022/10/10 05:10:52;;;;;;;;;;;7.40;99.90;;;;;;5063397;28;19920;-69
2022/10/10 05:13:19;;;;;;;;;;;7.40;99.90;;;;;;5064010;28;19921;-70
2022/10/10 05:15:45;;;;;;;;;;;7.40;99.90;;;;;;5063350;28;19920;-69
2022/10/10 05:18:12;;;;;;;;;;;7.40;99.90;;;;;;5063276;28;20251;-70
2022/10/10 05:20:39;;;;;;;;;;;7.40;99.90;;;;;;5064211;28;19920;-69
2022/10/10 05:23:05;;;;;;;;;;;7.40;99.90;;;;;;5063960;28;19951;-70
2022/10/10 05:25:33;;;;;;;;;;;7.40;99.90;;;;;;5063172;28;19921;-70
2022/10/10 05:28:00;;;;;;;;;;;7.40;99.90;;;;;;5063463;28;19927;-70
2022/10/10 05:30:26;;;;;;;;;;;7.40;99.90;;;;;;5063145;28;19983;-70
2022/10/10 05:32:53;;;;;;;;;;;7.50;99.90;;;;;;5063444;28;19922;-69
2022/10/10 05:35:19;;;;;;;;;;;7.40;99.90;;;;;;5063099;28;19935;-70
2022/10/10 05:37:46;;;;;;;;;;;7.40;99.90;;;;;;5063394;28;19999;-70
2022/10/10 05:40:13;;;;;;;;;;;7.40;99.90;;;;;;5063099;28;19983;-70
2022/10/10 05:42:41;;;;;;;;;;;7.50;99.90;;;;;;5063232;28;19927;-70
2022/10/10 05:45:08;;;;;;;;;;;7.50;99.90;;;;;;5061541;28;19950;-70
2022/10/10 05:47:34;;;;;;;;;;;7.50;99.90;;;;;;5063358;28;19920;-70
2022/10/10 05:50:01;;;;;;;;;;;7.50;99.90;;;;;;5049913;28;20276;-70
2022/10/10 05:52:27;;;;;;;;;;;7.50;99.90;;;;;;5062958;28;19927;-70
2022/10/10 05:54:54;;;;;;;;;;;7.50;99.90;;;;;;5055195;28;19921;-69
2022/10/10 05:57:21;;;;;;;;;;;7.50;99.90;;;;;;5062913;28;19928;-70
2022/10/10 05:59:49;;;;;;;;;;;7.50;99.90;;;;;;5047489;28;20149;-70
2022/10/10 06:02:15;;;;;;;;;;;7.50;99.90;;;;;;5044005;28;19921;-70
2022/10/10 06:04:42;;;;;;;;;;;7.50;99.90;;;;;;5063071;28;19979;-70
2022/10/10 06:07:09;;;;;;;;;;;7.50;99.90;;;;;;5062485;28;19927;-70
2022/10/10 06:09:36;;;;;;;;;;;7.50;99.90;;;;;;5062866;28;20215;-70
2022/10/10 06:12:02;;;;;;;;;;;7.50;99.90;;;;;;5062545;28;19996;-70
2022/10/10 06:14:29;;;;;;;;;;;7.50;99.90;;;;;;5063575;28;19920;-70
2022/10/10 06:16:57;;;;;;;;;;;7.50;99.90;;;;;;5061595;28;20227;-70
2022/10/10 06:19:23;;;;;;;;;;;7.50;99.90;;;;;;5063320;28;19921;-70
2022/10/10 06:21:50;;;;;;;;;;;7.50;99.90;;;;;;5063106;28;19983;-73
2022/10/10 06:24:16;;;;;;;;;;;7.40;99.90;;;;;;5065571;28;20231;-69
2022/10/10 06:26:43;;;;;;;;;;;7.50;99.90;;;;;;5066536;28;19920;-69
2022/10/10 06:29:10;;;;;;;;;;;7.50;99.90;;;;;;5050512;28;20119;-70
2022/10/10 06:31:38;;;;;;;;;;;7.50;99.90;;;;;;5067328;28;20128;-69
2022/10/10 06:34:06;;;;;;;;;;;7.50;99.90;;;;;;5067116;28;19921;-69
2022/10/10 06:36:33;;;;;;;;;;;7.50;99.90;;;;;;5066866;28;19927;-70
2022/10/10 06:39:00;;;;;;;;;;;7.50;99.90;;;;;;5066841;28;19921;-70
2022/10/10 06:41:26;;;;;;;;;;;7.50;99.90;;;;;;5066186;28;19927;-70
2022/10/10 06:43:53;;;;;;;;;;;7.50;99.90;;;;;;5066507;28;19988;-69
2022/10/10 06:46:19;;;;;;;;;;;7.50;99.90;;;;;;5066142;28;20229;-70
2022/10/10 06:48:46;;;;;;;;;;;7.60;99.90;;;;;;5066344;28;19981;-70
2022/10/10 06:51:15;;;;;;;;;;;7.60;99.90;;;;;;5060340;28;19983;-70
2022/10/10 06:53:42;;;;;;;;;;;7.60;99.90;;;;;;5066717;28;19963;-70
2022/10/10 06:56:10;;;;;;;;;;;7.60;99.90;;;;;;5065719;28;20134;-70
2022/10/10 06:58:36;;;;;;;;;;;7.70;99.90;;;;;;5066365;28;19979;-70
2022/10/10 07:01:04;;;;;;;;;;;7.70;99.90;;;;;;5066058;28;20140;-70
2022/10/10 07:03:31;;;;;;;;;;;7.80;99.90;;;;;;5066583;28;19921;-70
2022/10/10 07:05:58;;;;;;;;;;;7.80;99.90;;;;;;5066004;28;19921;-70
2022/10/10 07:08:26;;;;;;;;;;;7.90;99.90;;;;;;5066265;28;19988;-70
2022/10/10 07:10:53;;;;;;;;;;;8.00;99.90;;;;;;5065311;28;19928;-70
2022/10/10 07:13:20;;;;;;;;;;;8.00;99.90;;;;;;5065475;28;19956;-70
2022/10/10 07:15:47;;;;;;;;;;;8.10;99.90;;;;;;5065408;28;19980;-70
2022/10/10 07:18:13;;;;;;;;;;;8.10;99.90;;;;;;5065996;28;19986;-70
2022/10/10 07:20:40;;;;;;;;;;;8.20;99.90;;;;;;5065171;28;19987;-70
2022/10/10 07:23:07;;;;;;;;;;;8.20;99.90;;;;;;5066030;28;19959;-70
2022/10/10 07:25:37;;;;;;;;;;;8.20;99.90;;;;;;5053309;28;19963;-70
2022/10/10 07:28:03;;;;;;;;;;;8.20;99.90;;;;;;5061537;28;20112;-70
2022/10/10 07:30:30;;;;;;;;;;;8.20;99.90;;;;;;5063556;28;19984;-69
2022/10/10 07:32:57;;;;;;;;;;;8.20;99.90;;;;;;5065068;28;20096;-70
2022/10/10 07:35:23;;;;;;;;;;;8.30;99.90;;;;;;5064376;28;19925;-74
2022/10/10 07:37:53;;;;;;;;;;;8.30;99.90;;;;;;5065884;28;19927;-70
2022/10/10 07:40:20;;;;;;;;;;;8.40;99.90;;;;;;5065895;28;19920;-71
2022/10/10 07:42:48;;;;;;;;;;;8.40;99.90;;;;;;5064995;28;19957;-70
2022/10/10 07:45:14;;;;;;;;;;;8.40;99.90;;;;;;5064543;28;19927;-70
2022/10/10 07:47:41;;;;;;;;;;;8.40;99.90;;;;;;5065469;28;19921;-71
2022/10/10 07:50:08;;;;;;;;;;;8.40;99.90;;;;;;5065286;28;19988;-71
2022/10/10 07:52:35;;;;;;;;;;;8.50;99.90;;;;;;5065146;28;19927;-72
2022/10/10 07:55:01;;;;;;;;;;;8.60;99.90;;;;;;5065413;28;19925;-70
2022/10/10 07:57:33;;;;;;;;;;;8.70;99.90;;;;;;5065204;28;20025;-71
2022/10/10 08:00:01;;;;;;;;;;;8.80;99.90;;;;;;5065419;28;19921;-71
2022/10/10 08:02:28;;;;;;;;;;;8.90;99.90;;;;;;5065122;28;19924;-71
2022/10/10 08:04:55;;;;;;;;;;;9.00;99.90;;;;;;5064188;28;19983;-71
2022/10/10 08:07:21;;;;;;;;;;;9.10;99.90;;;;;;5064948;28;19959;-70
2022/10/10 08:09:48;;;;;;;;;;;9.20;99.90;;;;;;5065365;28;19927;-70
2022/10/10 08:12:15;;;;;;;;;;;9.30;99.90;;;;;;5065359;28;19927;-69
2022/10/10 08:14:42;;;;;;;;;;;9.50;99.90;;;;;;5064151;28;20153;-71
2022/10/10 08:17:10;;;;;;;;;;;9.40;99.90;;;;;;5064982;28;19996;-70
2022/10/10 08:19:36;;;;;;;;;;;9.60;99.90;;;;;;5064865;28;20232;-71
2022/10/10 08:22:03;;;;;;;;;;;9.70;99.90;;;;;;5064956;28;19943;-71
2022/10/10 08:24:30;;;;;;;;;;;9.80;99.90;;;;;;5064964;28;20123;-69
2022/10/10 08:26:56;;;;;;;;;;;9.90;99.90;;;;;;5064807;28;19995;-71
2022/10/10 08:29:23;;;;;;;;;;;10.10;99.90;;;;;;5064580;28;20008;-71
2022/10/10 08:31:50;;;;;;;;;;;10.20;99.90;;;;;;5064599;28;19920;-71
2022/10/10 08:34:18;;;;;;;;;;;10.40;99.90;;;;;;5065304;28;19988;-71
2022/10/10 08:36:45;;;;;;;;;;;10.60;99.90;;;;;;5064392;28;19920;-71
2022/10/10 08:39:11;;;;;;;;;;;10.70;99.90;;;;;;5064689;28;19987;-71
2022/10/10 08:41:40;;;;;;;;;;;10.90;99.90;;;;;;5063602;28;19921;-70
2022/10/10 08:44:13;;;;;;;;;;;11.10;99.90;;;;;;5064545;28;19987;-71
2022/10/10 08:46:41;;;;;;;;;;;11.30;99.90;;;;;;5063537;28;19925;-71
2022/10/10 08:49:16;;;;;;;;;;;11.40;99.90;;;;;;5064368;28;19992;-71
2022/10/10 08:51:47;;;;;;;;;;;11.60;99.90;;;;;;5064494;28;19920;-71
2022/10/10 08:54:14;;;;;;;;;;;11.80;99.90;;;;;;5064424;28;20004;-71
2022/10/10 08:56:41;;;;;;;;;;;11.90;99.90;;;;;;5063483;28;19955;-71
2022/10/10 08:59:12;;;;;;;;;;;12.00;99.90;;;;;;5064098;28;19920;-71
2022/10/10 09:01:39;;;;;;;;;;;12.10;99.90;;;;;;5064306;28;20167;-71
2022/10/10 09:04:07;;;;;;;;;;;12.20;99.90;;;;;;5064190;28;19952;-71
2022/10/10 09:06:44;;;;;;;;;;;12.40;99.90;;;;;;5063904;28;19927;-71
2022/10/10 09:09:18;;;;;;;;;;;12.50;99.90;;;;;;5063849;28;19921;-72
2022/10/10 09:11:50;;;;;;;;;;;12.60;99.90;;;;;;5063825;28;20204;-71
2022/10/10 09:14:23;;;;;;;;;;;12.70;99.90;;;;;;5063773;28;19921;-70
2022/10/10 09:16:53;;;;;;;;;;;12.80;99.90;;;;;;5062847;28;20212;-71
2022/10/10 09:19:31;;;;;;;;;;;12.90;99.90;;;;;;5064063;28;19927;-71
2022/10/10 09:22:00;;;;;;;;;;;13.00;99.90;;;;;;5063898;28;19927;-71
2022/10/10 09:24:32;;;;;;;;;;;13.10;99.90;;;;;;5063518;28;20087;-71
2022/10/10 09:27:02;;;;;;;;;;;13.20;99.90;;;;;;5063902;28;20123;-71
2022/10/10 09:29:31;;;;;;;;;;;13.30;99.90;;;;;;5055918;28;20086;-71
2022/10/10 09:31:59;;;;;;;;;;;13.30;99.90;;;;;;5063490;28;20212;-70
2022/10/10 09:34:31;;;;;;;;;;;13.40;99.90;;;;;;5063172;28;19927;-71
2022/10/10 09:37:01;;;;;;;;;;;13.50;99.90;;;;;;5043726;28;19921;-70
2022/10/10 09:39:32;;;;;;;;;;;13.60;99.90;;;;;;5057606;28;19928;-70
2022/10/10 09:42:00;;;;;;;;;;;13.80;99.90;;;;;;5063391;28;19921;-71
2022/10/10 09:44:27;;;;;;;;;;;13.80;99.90;;;;;;5063396;28;19927;-71
2022/10/10 09:46:54;;;;;;;;;;;14.00;99.90;;;;;;5062656;28;19922;-70
2022/10/10 09:49:21;;;;;;;;;;;14.10;99.90;;;;;;5063038;28;19921;-71
2022/10/10 09:51:48;;;;;;;;;;;14.20;99.90;;;;;;5060184;28;19920;-71
2022/10/10 09:54:16;;;;;;;;;;;14.30;99.90;;;;;;5062113;28;19921;-71
2022/10/10 09:56:47;;;;;;;;;;;14.40;99.90;;;;;;5062820;28;19920;-71
2022/10/10 09:59:33;;;;;;;;;;;14.50;99.90;;;;;;5062220;28;19920;-70
2022/10/10 10:02:01;;;;;;;;;;;14.60;99.90;;;;;;5062731;28;19920;-71
2022/10/10 10:04:31;;;;;;;;;;;14.80;99.90;;;;;;5062944;28;19963;-71
2022/10/10 10:07:04;;;;;;;;;;;15.00;99.90;;;;;;5062421;28;19958;-70
2022/10/10 10:09:31;;;;;;;;;;;15.30;99.90;;;;;;5062973;28;19927;-71
2022/10/10 10:11:59;;;;;;;;;;;15.50;99.90;;;;;;5063106;28;19966;-71
2022/10/10 10:14:27;;;;;;;;;;;15.60;99.90;;;;;;5062744;28;19989;-71
2022/10/10 10:16:55;;;;;;;;;;;15.70;99.90;;;;;;5062687;28;19920;-71
2022/10/10 10:19:32;;;;;;;;;;;15.80;99.90;;;;;;5062688;28;19921;-71
2022/10/10 10:21:58;;;;;;;;;;;16.00;99.90;;;;;;5062822;28;19921;-70
2022/10/10 10:24:30;;;;;;;;;;;16.10;99.90;;;;;;5063018;28;19988;-71
2022/10/10 10:27:07;;;;;;;;;;;16.20;99.90;;;;;;5062438;28;19983;-71
2022/10/10 10:29:34;;;;;;;;;;;16.30;99.90;;;;;;5062791;28;19963;-71
2022/10/10 10:32:04;;;;;;;;;;;16.50;99.90;;;;;;5062719;28;19921;-70
2022/10/10 10:34:39;;;;;;;;;;;16.70;99.90;;;;;;5062249;28;20255;-70
2022/10/10 10:37:12;;;;;;;;;;;16.80;99.90;;;;;;5062323;28;19921;-70
2022/10/10 10:39:43;;;;;;;;;;;16.90;99.90;;;;;;5062913;28;20119;-71
2022/10/10 10:42:20;;;;;;;;;;;16.90;99.90;;;;;;5063141;28;19935;-71
2022/10/10 10:44:49;;;;;;;;;;;17.00;99.90;;;;;;5062836;28;19987;-70
2022/10/10 10:47:33;;;;;;;;;;;17.10;99.90;;;;;;5121065;22;19926;-75
2022/10/10 10:50:06;;;;;;;;;;;17.20;99.90;;;;;;5124066;28;20153;-76
2022/10/10 10:52:39;;;;;;;;;;;17.40;99.90;;;;;;5125368;28;19920;-76
2022/10/10 10:55:14;;;;;;;;;;;17.50;99.90;;;;;;5122917;28;19951;-74
2022/10/10 10:57:50;;;;;;;;;;;17.80;99.90;;;;;;5103173;28;19926;-75
2022/10/10 11:00:18;;;;;;;;;;;18.00;99.90;;;;;;5103006;28;20150;-76
2022/10/10 11:02:51;;;;;;;;;;;18.20;99.90;;;;;;5102758;28;20115;-76
2022/10/10 11:05:35;;;;;;;;;;;18.30;99.90;;;;;;5102565;28;19980;-75
2022/10/10 11:08:17;;;;;;;;;;;18.40;99.90;;;;;;5083783;28;19994;-74
2022/10/10 11:10:47;;;;;;;;;;;18.50;99.90;;;;;;5092957;28;19988;-77
2022/10/10 11:13:19;;;;;;;;;;;18.60;99.90;;;;;;5106354;28;20283;-74
2022/10/10 11:15:48;;;;;;;;;;;18.60;99.90;;;;;;5105990;28;19983;-75
2022/10/10 11:18:17;;;;;;;;;;;18.60;99.90;;;;;;5106477;28;20275;-75
2022/10/10 11:20:46;;;;;;;;;;;18.40;99.90;;;;;;5106348;28;19966;-75
2022/10/10 11:23:15;;;;;;;;;;;18.40;99.90;;;;;;5105739;28;19958;-75
2022/10/10 11:25:42;;;;;;;;;;;18.20;99.90;;;;;;5105748;28;20233;-75
2022/10/10 11:28:11;;;;;;;;;;;18.20;99.90;;;;;;5094040;28;19927;-75
2022/10/10 11:30:44;;;;;;;;;;;18.10;99.90;;;;;;5106184;28;20178;-75
2022/10/10 11:33:12;;;;;;;;;;;18.00;99.90;;;;;;5105926;28;19926;-75
2022/10/10 11:35:42;;;;;;;;;;;17.90;99.90;;;;;;5105448;28;19979;-75
2022/10/10 11:38:13;;;;;;;;;;;17.90;99.90;;;;;;5105733;28;19995;-75
2022/10/10 11:40:47;;;;;;;;;;;18.00;99.90;;;;;;5106037;28;19975;-75
2022/10/10 11:43:17;;;;;;;;;;;18.00;99.90;;;;;;5105861;28;19926;-75
2022/10/10 11:45:46;;;;;;;;;;;18.20;99.90;;;;;;5105519;28;19978;-75
2022/10/10 11:48:17;;;;;;;;;;;18.50;99.90;;;;;;5105867;28;19926;-75
2022/10/10 11:50:44;;;;;;;;;;;18.80;99.90;;;;;;5106130;28;20200;-75
2022/10/10 11:53:15;;;;;;;;;;;19.00;99.90;;;;;;5104965;28;19951;-75
2022/10/10 11:55:45;;;;;;;;;;;19.00;99.90;;;;;;5105099;28;19983;-75
2022/10/10 11:58:24;;;;;;;;;;;19.10;99.90;;;;;;5105751;28;19920;-76
2022/10/10 12:00:54;;;;;;;;;;;19.00;99.90;;;;;;5105397;28;20225;-76
2022/10/10 12:03:21;;;;;;;;;;;18.90;99.90;;;;;;5105663;28;19991;-76
2022/10/10 12:05:49;;;;;;;;;;;18.80;99.90;;;;;;5105109;28;19992;-74
2022/10/10 12:08:20;;;;;;;;;;;18.70;99.90;;;;;;5105531;28;20123;-75
2022/10/10 12:10:49;;;;;;;;;;;18.60;99.90;;;;;;5105978;28;19920;-76
2022/10/10 12:13:24;;;;;;;;;;;18.50;99.90;;;;;;5105232;28;19938;-75
2022/10/10 12:15:55;;;;;;;;;;;18.50;99.90;;;;;;5104971;28;19927;-75
2022/10/10 12:18:26;;;;;;;;;;;18.50;99.90;;;;;;5105296;28;19959;-75
2022/10/10 12:21:03;;;;;;;;;;;18.60;99.90;;;;;;5104027;28;19952;-75
2022/10/10 12:23:30;;;;;;;;;;;18.60;99.90;;;;;;5105091;28;19924;-75
2022/10/10 12:25:57;;;;;;;;;;;18.60;99.90;;;;;;5105053;28;19991;-76
2022/10/10 12:28:25;;;;;;;;;;;18.60;99.90;;;;;;5105354;28;19983;-76
2022/10/10 12:31:10;;;;;;;;;;;18.60;99.90;;;;;;5104942;28;19952;-73
2022/10/10 12:34:02;;;;;;;;;;;18.60;99.90;;;;;;5104889;28;20212;-76
2022/10/10 12:37:02;;;;;;;;;;;18.70;99.90;;;;;;5104423;28;20207;-75
2022/10/10 12:39:34;;;;;;;;;;;18.60;99.90;;;;;;5105065;28;19924;-75
2022/10/10 12:42:00;;;;;;;;;;;18.70;99.90;;;;;;5104715;28;20218;-75
2022/10/10 12:44:42;;;;;;;;;;;18.80;99.90;;;;;;5104454;28;20203;-75
2022/10/10 12:47:29;;;;;;;;;;;18.80;99.90;;;;;;5097525;28;19987;-75
2022/10/10 12:49:57;;;;;;;;;;;18.90;99.90;;;;;;5105009;28;19957;-75
2022/10/10 12:52:26;;;;;;;;;;;18.90;99.90;;;;;;5096927;28;19976;-75
2022/10/10 12:54:54;;;;;;;;;;;19.00;99.90;;;;;;5104625;28;19956;-73
2022/10/10 12:57:25;;;;;;;;;;;19.00;99.90;;;;;;5104500;28;20218;-76
2022/10/10 12:59:51;;;;;;;;;;;19.10;99.90;;;;;;5104344;28;19984;-75
2022/10/10 13:02:20;;;;;;;;;;;19.20;99.90;;;;;;5104323;28;20139;-75
2022/10/10 13:04:48;;;;;;;;;;;19.20;99.90;;;;;;5103876;28;19920;-75
2022/10/10 13:07:18;;;;;;;;;;;19.20;99.90;;;;;;5103986;28;19983;-76
2022/10/10 13:09:46;;;;;;;;;;;19.20;99.90;;;;;;5104340;28;19926;-75
2022/10/10 13:12:21;;;;;;;;;;;19.30;99.90;;;;;;5104337;28;19920;-75
2022/10/10 13:14:48;;;;;;;;;;;19.40;99.90;;;;;;5104105;28;19920;-75
2022/10/10 13:17:22;;;;;;;;;;;19.60;99.90;;;;;;5104087;28;19994;-76
2022/10/10 13:19:49;;;;;;;;;;;20.00;99.90;;;;;;5103579;28;20149;-75
2022/10/10 13:22:17;;;;;;;;;;;20.40;99.90;;;;;;5104093;28;20278;-73
2022/10/10 13:24:44;;;;;;;;;;;20.80;99.90;;;;;;5104097;28;19926;-71
2022/10/10 13:27:15;;;;;;;;;;;21.10;99.90;;;;;;5103764;28;19920;-75
2022/10/10 13:29:41;;;;;;;;;;;21.40;99.90;;;;;;5103799;28;19959;-75
2022/10/10 13:32:11;;;;;;;;;;;21.70;99.90;;;;;;5103679;28;19958;-75
2022/10/10 13:34:39;;;;;;;;;;;21.90;99.90;;;;;;5103302;28;19983;-73
2022/10/10 13:37:06;;;;;;;;;;;22.10;99.90;;;;;;5104132;28;19923;-73
2022/10/10 13:39:37;;;;;;;;;;;22.40;99.90;;;;;;5104166;28;19920;-75
2022/10/10 13:42:04;;;;;;;;;;;22.60;99.90;;;;;;5103991;28;19924;-75
2022/10/10 13:44:33;;;;;;;;;;;22.70;99.90;;;;;;5103375;28;19920;-75
2022/10/10 13:47:19;;;;;;;;;;;22.90;99.90;;;;;;5103374;28;19919;-74
2022/10/10 13:49:54;;;;;;;;;;;23.10;99.90;;;;;;5103251;28;19970;-75
2022/10/10 13:52:21;;;;;;;;;;;23.20;99.90;;;;;;5103429;28;19920;-76
2022/10/10 13:54:49;;;;;;;;;;;22.90;99.90;;;;;;5102900;28;20181;-75
2022/10/10 13:57:18;;;;;;;;;;;22.50;99.90;;;;;;5101172;28;19926;-74
2022/10/10 13:59:46;;;;;;;;;;;22.30;99.90;;;;;;5101944;28;19920;-73
2022/10/10 14:02:14;;;;;;;;;;;22.20;99.90;;;;;;5102612;28;20081;-73
2022/10/10 14:04:44;;;;;;;;;;;22.00;99.90;;;;;;5102655;28;19987;-73
2022/10/10 14:07:13;;;;;;;;;;;22.00;99.90;;;;;;5100774;28;19943;-72
2022/10/10 14:09:40;;;;;;;;;;;22.00;99.90;;;;;;5102748;28;19920;-73
2022/10/10 14:12:15;;;;;;;;;;;22.20;99.90;;;;;;5103442;28;19920;-72
2022/10/10 14:14:44;;;;;;;;;;;22.40;99.90;;;;;;5101808;28;19920;-71
2022/10/10 14:17:11;;;;;;;;;;;22.50;99.90;;;;;;5101561;28;20044;-72
2022/10/10 14:19:38;;;;;;;;;;;22.70;99.90;;;;;;5103034;28;19942;-73
2022/10/10 14:22:04;;;;;;;;;;;22.90;99.90;;;;;;5102963;28;19996;-73
2022/10/10 14:24:31;;;;;;;;;;;23.00;99.90;;;;;;5103041;28;19979;-72
2022/10/10 14:26:58;;;;;;;;;;;23.10;99.90;;;;;;5102190;28;19927;-73
2022/10/10 14:29:26;;;;;;;;;;;23.10;99.90;;;;;;5102923;28;19920;-72
2022/10/10 14:31:52;;;;;;;;;;;22.90;99.90;;;;;;5092993;28;19938;-76